sensor_id;sensor_type;location;lat;lon;timestamp;pressure;altitude;pressure_sealevel;temperature;humidity
56042;BME280;48756;41.374;2.066;2022-10-16T00:00:53;101037.97;;;20.99;100.00
56042;BME280;48756;41.374;2.066;2022-10-16T00:03:18;101043.97;;;21.02;100.00
56042;BME280;48756;41.374;2.066;2022-10-16T00:05:44;101043.34;;;20.97;100.00
56042;BME280;48756;41.374;2.066;2022-10-16T00:08:13;101047.53;;;20.84;100.00
56042;BME280;48756;41.374;2.066;2022-10-16T00:10:38;101042.09;;;20.87;100.00
56042;BME280;48756;41.374;2.066;2022-10-16T00:13:04;101039.44;;;20.87;100.00
56042;BME280;48756;41.374;2.066;2022-10-16T00:15:30;101039.59;;;20.84;100.00
56042;BME280;48756;41.374;2.066;2022-10-16T00:17:56;101033.19;;;20.88;100.00
56042;BME280;48756;41.374;2.066;2022-10-16T00:20:21;101031.75;;;20.81;100.00
56042;BME280;48756;41.374;2.066;2022-10-16T00:22:46;101029.91;;;20.83;100.00
56042;BME280;48756;41.374;2.066;2022-10-16T00:25:12;101024.25;;;20.91;100.00
56042;BME280;48756;41.374;2.066;2022-10-16T00:27:37;101025.97;;;20.92;100.00
56042;BME280;48756;41.374;2.066;2022-10-16T00:30:02;101033.59;;;20.98;100.00
56042;BME280;48756;41.374;2.066;2022-10-16T00:32:28;101030.47;;;21.08;100.00
56042;BME280;48756;41.374;2.066;2022-10-16T00:34:53;101031.78;;;21.17;99.05
56042;BME280;48756;41.374;2.066;2022-10-16T00:37:22;101030.31;;;21.12;98.62
56042;BME280;48756;41.374;2.066;2022-10-16T00:39:47;101020.41;;;21.15;98.72
56042;BME280;48756;41.374;2.066;2022-10-16T00:42:16;101017.38;;;21.05;98.63
56042;BME280;48756;41.374;2.066;2022-10-16T00:44:43;101014.81;;;20.85;98.85
56042;BME280;48756;41.374;2.066;2022-10-16T00:47:19;101013.16;;;20.83;99.64
56042;BME280;48756;41.374;2.066;2022-10-16T00:49:46;101008.00;;;20.79;98.50
56042;BME280;48756;41.374;2.066;2022-10-16T00:52:12;101007.50;;;20.71;99.93
56042;BME280;48756;41.374;2.066;2022-10-16T00:54:38;101011.50;;;20.80;99.93
56042;BME280;48756;41.374;2.066;2022-10-16T00:57:04;101007.28;;;20.76;99.70
56042;BME280;48756;41.374;2.066;2022-10-16T00:59:32;101001.28;;;20.54;99.99
56042;BME280;48756;41.374;2.066;2022-10-16T01:01:59;100998.06;;;20.66;99.33
56042;BME280;48756;41.374;2.066;2022-10-16T01:04:24;101006.06;;;20.45;100.00
56042;BME280;48756;41.374;2.066;2022-10-16T01:07:03;101006.84;;;20.47;99.72
56042;BME280;48756;41.374;2.066;2022-10-16T01:09:37;100994.91;;;20.58;99.70
56042;BME280;48756;41.374;2.066;2022-10-16T01:12:15;100999.22;;;20.60;99.25
56042;BME280;48756;41.374;2.066;2022-10-16T01:14:47;101003.38;;;20.66;99.51
56042;BME280;48756;41.374;2.066;2022-10-16T01:25:05;100999.94;;;20.64;98.98
56042;BME280;48756;41.374;2.066;2022-10-16T01:27:34;100992.69;;;20.48;98.67
56042;BME280;48756;41.374;2.066;2022-10-16T01:30:09;100984.91;;;20.45;99.55
56042;BME280;48756;41.374;2.066;2022-10-16T01:37:54;100980.34;;;20.29;99.30
56042;BME280;48756;41.374;2.066;2022-10-16T01:40:22;100983.78;;;20.31;98.95
56042;BME280;48756;41.374;2.066;2022-10-16T01:43:11;100994.31;;;20.12;99.77
56042;BME280;48756;41.374;2.066;2022-10-16T01:45:37;100994.69;;;20.04;100.00
56042;BME280;48756;41.374;2.066;2022-10-16T01:48:03;101000.56;;;19.91;100.00
56042;BME280;48756;41.374;2.066;2022-10-16T01:50:33;101009.03;;;19.99;100.00
56042;BME280;48756;41.374;2.066;2022-10-16T01:53:00;101014.28;;;19.80;100.00
56042;BME280;48756;41.374;2.066;2022-10-16T01:55:28;101013.69;;;19.73;100.00
56042;BME280;48756;41.374;2.066;2022-10-16T01:57:55;101000.78;;;19.86;100.00
56042;BME280;48756;41.374;2.066;2022-10-16T02:00:23;101009.13;;;19.97;100.00
56042;BME280;48756;41.374;2.066;2022-10-16T02:02:49;101006.19;;;20.03;100.00
56042;BME280;48756;41.374;2.066;2022-10-16T02:05:22;101017.41;;;20.08;100.00
56042;BME280;48756;41.374;2.066;2022-10-16T02:07:48;101028.00;;;20.08;100.00
56042;BME280;48756;41.374;2.066;2022-10-16T02:10:14;101034.47;;;20.22;100.00
56042;BME280;48756;41.374;2.066;2022-10-16T02:12:40;101042.09;;;20.09;100.00
56042;BME280;48756;41.374;2.066;2022-10-16T02:15:08;101039.91;;;20.18;100.00
56042;BME280;48756;41.374;2.066;2022-10-16T02:17:34;101033.69;;;20.19;100.00
56042;BME280;48756;41.374;2.066;2022-10-16T02:19:59;101043.00;;;20.08;100.00
56042;BME280;48756;41.374;2.066;2022-10-16T02:24:58;101035.00;;;19.89;100.00
56042;BME280;48756;41.374;2.066;2022-10-16T02:27:39;101027.34;;;20.03;100.00
56042;BME280;48756;41.374;2.066;2022-10-16T02:30:13;101021.25;;;20.22;100.00
56042;BME280;48756;41.374;2.066;2022-10-16T02:32:40;101014.66;;;20.30;100.00
56042;BME280;48756;41.374;2.066;2022-10-16T02:35:07;101009.81;;;20.21;100.00
56042;BME280;48756;41.374;2.066;2022-10-16T02:37:33;101002.25;;;20.12;100.00
56042;BME280;48756;41.374;2.066;2022-10-16T02:39:58;100996.66;;;20.19;100.00
56042;BME280;48756;41.374;2.066;2022-10-16T02:42:28;100995.28;;;20.30;100.00
56042;BME280;48756;41.374;2.066;2022-10-16T02:44:54;100996.06;;;20.32;100.00
56042;BME280;48756;41.374;2.066;2022-10-16T02:47:20;101001.88;;;20.21;100.00
56042;BME280;48756;41.374;2.066;2022-10-16T02:49:45;101005.59;;;20.17;100.00
56042;BME280;48756;41.374;2.066;2022-10-16T02:52:10;101002.72;;;20.22;100.00
56042;BME280;48756;41.374;2.066;2022-10-16T02:54:36;101001.72;;;20.24;100.00
56042;BME280;48756;41.374;2.066;2022-10-16T02:57:01;100999.94;;;20.25;100.00
56042;BME280;48756;41.374;2.066;2022-10-16T02:59:26;100998.88;;;20.29;100.00
56042;BME280;48756;41.374;2.066;2022-10-16T03:01:52;100999.94;;;20.25;100.00
56042;BME280;48756;41.374;2.066;2022-10-16T03:04:17;100998.44;;;20.19;100.00
56042;BME280;48756;41.374;2.066;2022-10-16T03:06:42;100997.75;;;20.14;100.00
56042;BME280;48756;41.374;2.066;2022-10-16T03:09:08;101003.25;;;20.09;100.00
56042;BME280;48756;41.374;2.066;2022-10-16T03:11:33;101004.97;;;20.10;100.00
56042;BME280;48756;41.374;2.066;2022-10-16T03:13:58;100995.16;;;19.94;100.00
56042;BME280;48756;41.374;2.066;2022-10-16T03:16:24;100992.78;;;19.87;100.00
56042;BME280;48756;41.374;2.066;2022-10-16T03:18:49;100991.53;;;19.96;100.00
56042;BME280;48756;41.374;2.066;2022-10-16T03:21:15;100998.03;;;20.08;100.00
56042;BME280;48756;41.374;2.066;2022-10-16T03:23:40;100996.53;;;20.02;100.00
56042;BME280;48756;41.374;2.066;2022-10-16T03:26:06;100989.03;;;19.93;100.00
56042;BME280;48756;41.374;2.066;2022-10-16T03:28:31;100994.88;;;20.00;100.00
56042;BME280;48756;41.374;2.066;2022-10-16T03:30:56;100996.47;;;20.04;100.00
56042;BME280;48756;41.374;2.066;2022-10-16T03:33:22;100999.97;;;20.04;100.00
56042;BME280;48756;41.374;2.066;2022-10-16T03:35:50;100984.03;;;20.06;100.00
56042;BME280;48756;41.374;2.066;2022-10-16T03:38:16;100996.41;;;20.05;100.00
56042;BME280;48756;41.374;2.066;2022-10-16T03:40:42;100996.31;;;20.07;100.00
56042;BME280;48756;41.374;2.066;2022-10-16T03:43:07;100991.97;;;20.06;100.00
56042;BME280;48756;41.374;2.066;2022-10-16T03:45:32;100991.47;;;19.98;100.00
56042;BME280;48756;41.374;2.066;2022-10-16T03:47:58;100992.97;;;19.83;100.00
56042;BME280;48756;41.374;2.066;2022-10-16T03:50:23;100997.41;;;19.82;100.00
56042;BME280;48756;41.374;2.066;2022-10-16T03:52:52;100995.09;;;19.54;100.00
56042;BME280;48756;41.374;2.066;2022-10-16T03:55:17;100988.31;;;19.47;100.00
56042;BME280;48756;41.374;2.066;2022-10-16T03:57:42;100994.69;;;19.42;100.00
56042;BME280;48756;41.374;2.066;2022-10-16T04:00:09;101001.78;;;19.41;100.00
56042;BME280;48756;41.374;2.066;2022-10-16T04:02:34;101001.03;;;19.60;100.00
56042;BME280;48756;41.374;2.066;2022-10-16T04:05:00;101004.28;;;19.66;100.00
56042;BME280;48756;41.374;2.066;2022-10-16T04:07:25;101003.97;;;19.74;100.00
56042;BME280;48756;41.374;2.066;2022-10-16T04:09:50;101016.25;;;19.75;100.00
56042;BME280;48756;41.374;2.066;2022-10-16T04:12:17;101018.69;;;19.59;100.00
56042;BME280;48756;41.374;2.066;2022-10-16T04:14:42;101013.84;;;19.69;100.00
56042;BME280;48756;41.374;2.066;2022-10-16T04:17:07;101019.75;;;19.55;100.00
56042;BME280;48756;41.374;2.066;2022-10-16T04:19:33;101027.16;;;19.45;100.00
56042;BME280;48756;41.374;2.066;2022-10-16T04:21:58;101021.41;;;19.57;100.00
56042;BME280;48756;41.374;2.066;2022-10-16T04:24:23;101015.84;;;19.64;100.00
56042;BME280;48756;41.374;2.066;2022-10-16T04:26:49;101023.13;;;19.58;100.00
56042;BME280;48756;41.374;2.066;2022-10-16T04:29:14;101022.06;;;19.63;100.00
56042;BME280;48756;41.374;2.066;2022-10-16T04:31:39;101028.19;;;19.63;100.00
56042;BME280;48756;41.374;2.066;2022-10-16T04:34:05;101022.97;;;19.62;100.00
56042;BME280;48756;41.374;2.066;2022-10-16T04:36:30;101034.75;;;19.54;100.00
56042;BME280;48756;41.374;2.066;2022-10-16T04:38:55;101036.47;;;19.55;100.00
56042;BME280;48756;41.374;2.066;2022-10-16T04:41:21;101034.78;;;19.53;100.00
56042;BME280;48756;41.374;2.066;2022-10-16T04:43:46;101034.75;;;19.54;100.00
56042;BME280;48756;41.374;2.066;2022-10-16T04:46:12;101030.25;;;19.56;100.00
56042;BME280;48756;41.374;2.066;2022-10-16T04:48:37;101033.13;;;19.50;100.00
56042;BME280;48756;41.374;2.066;2022-10-16T04:51:03;101032.19;;;19.51;100.00
56042;BME280;48756;41.374;2.066;2022-10-16T04:53:28;101040.97;;;19.53;100.00
56042;BME280;48756;41.374;2.066;2022-10-16T04:55:54;101048.00;;;19.53;100.00
56042;BME280;48756;41.374;2.066;2022-10-16T04:58:19;101046.97;;;19.57;100.00
56042;BME280;48756;41.374;2.066;2022-10-16T05:00:44;101046.56;;;19.44;100.00
56042;BME280;48756;41.374;2.066;2022-10-16T05:03:11;101052.56;;;19.27;100.00
56042;BME280;48756;41.374;2.066;2022-10-16T05:05:36;101052.06;;;19.40;100.00
56042;BME280;48756;41.374;2.066;2022-10-16T05:08:02;101051.69;;;19.49;100.00
56042;BME280;48756;41.374;2.066;2022-10-16T05:10:27;101045.41;;;19.51;100.00
56042;BME280;48756;41.374;2.066;2022-10-16T05:12:53;101050.59;;;19.54;100.00
56042;BME280;48756;41.374;2.066;2022-10-16T05:15:18;101056.69;;;19.56;100.00
56042;BME280;48756;41.374;2.066;2022-10-16T05:17:44;101056.69;;;19.56;100.00
56042;BME280;48756;41.374;2.066;2022-10-16T05:20:09;101068.06;;;19.58;100.00
56042;BME280;48756;41.374;2.066;2022-10-16T05:22:35;101072.06;;;19.45;100.00
56042;BME280;48756;41.374;2.066;2022-10-16T05:25:00;101066.78;;;19.45;100.00
56042;BME280;48756;41.374;2.066;2022-10-16T05:27:26;101071.41;;;19.18;100.00
56042;BME280;48756;41.374;2.066;2022-10-16T05:29:52;101074.63;;;19.05;100.00
56042;BME280;48756;41.374;2.066;2022-10-16T05:32:17;101080.78;;;18.82;100.00
56042;BME280;48756;41.374;2.066;2022-10-16T05:34:43;101075.72;;;18.76;100.00
56042;BME280;48756;41.374;2.066;2022-10-16T05:37:09;101078.28;;;18.77;100.00
56042;BME280;48756;41.374;2.066;2022-10-16T05:39:35;101096.09;;;18.72;100.00
56042;BME280;48756;41.374;2.066;2022-10-16T05:42:02;101104.75;;;18.76;100.00
56042;BME280;48756;41.374;2.066;2022-10-16T05:44:27;101104.38;;;18.86;100.00
56042;BME280;48756;41.374;2.066;2022-10-16T05:46:52;101101.41;;;18.94;100.00
56042;BME280;48756;41.374;2.066;2022-10-16T05:49:18;101100.63;;;18.92;100.00
56042;BME280;48756;41.374;2.066;2022-10-16T05:51:43;101092.88;;;18.87;100.00
56042;BME280;48756;41.374;2.066;2022-10-16T05:54:08;101092.88;;;18.87;100.00
56042;BME280;48756;41.374;2.066;2022-10-16T05:56:34;101090.13;;;18.90;100.00
56042;BME280;48756;41.374;2.066;2022-10-16T05:58:59;101092.81;;;18.89;100.00
56042;BME280;48756;41.374;2.066;2022-10-16T06:01:25;101096.38;;;18.88;100.00
56042;BME280;48756;41.374;2.066;2022-10-16T06:03:50;101097.97;;;18.92;100.00
56042;BME280;48756;41.374;2.066;2022-10-16T06:06:17;101101.28;;;18.97;100.00
56042;BME280;48756;41.374;2.066;2022-10-16T06:08:43;101095.38;;;19.14;100.00
56042;BME280;48756;41.374;2.066;2022-10-16T06:11:12;101093.28;;;19.22;100.00
56042;BME280;48756;41.374;2.066;2022-10-16T06:13:38;101093.34;;;19.20;100.00
56042;BME280;48756;41.374;2.066;2022-10-16T06:16:06;101097.75;;;19.20;100.00
56042;BME280;48756;41.374;2.066;2022-10-16T06:18:32;101094.13;;;19.22;100.00
56042;BME280;48756;41.374;2.066;2022-10-16T06:20:57;101097.59;;;19.24;100.00
56042;BME280;48756;41.374;2.066;2022-10-16T06:23:24;101098.81;;;19.16;100.00
56042;BME280;48756;41.374;2.066;2022-10-16T06:25:49;101106.97;;;19.10;100.00
56042;BME280;48756;41.374;2.066;2022-10-16T06:28:15;101116.63;;;19.11;100.00
56042;BME280;48756;41.374;2.066;2022-10-16T06:30:40;101115.59;;;19.15;100.00
56042;BME280;48756;41.374;2.066;2022-10-16T06:33:08;101102.81;;;19.26;100.00
56042;BME280;48756;41.374;2.066;2022-10-16T06:35:33;101105.94;;;19.36;100.00
56042;BME280;48756;41.374;2.066;2022-10-16T06:37:59;101108.72;;;19.33;100.00
56042;BME280;48756;41.374;2.066;2022-10-16T06:40:24;101117.94;;;19.44;100.00
56042;BME280;48756;41.374;2.066;2022-10-16T06:42:50;101118.34;;;19.57;100.00
56042;BME280;48756;41.374;2.066;2022-10-16T06:45:16;101131.22;;;19.65;100.00
56042;BME280;48756;41.374;2.066;2022-10-16T06:47:42;101127.88;;;19.61;100.00
56042;BME280;48756;41.374;2.066;2022-10-16T06:50:07;101125.94;;;19.65;100.00
56042;BME280;48756;41.374;2.066;2022-10-16T06:52:33;101126.44;;;19.52;100.00
56042;BME280;48756;41.374;2.066;2022-10-16T06:54:59;101128.34;;;19.49;100.00
56042;BME280;48756;41.374;2.066;2022-10-16T06:57:24;101132.66;;;19.73;100.00
56042;BME280;48756;41.374;2.066;2022-10-16T06:59:49;101138.63;;;19.78;100.00
56042;BME280;48756;41.374;2.066;2022-10-16T07:02:15;101139.59;;;19.76;100.00
56042;BME280;48756;41.374;2.066;2022-10-16T07:04:40;101145.63;;;19.79;100.00
56042;BME280;48756;41.374;2.066;2022-10-16T07:07:05;101148.13;;;19.82;99.57
56042;BME280;48756;41.374;2.066;2022-10-16T07:09:31;101142.00;;;19.82;99.28
56042;BME280;48756;41.374;2.066;2022-10-16T07:11:56;101141.84;;;19.85;99.21
56042;BME280;48756;41.374;2.066;2022-10-16T07:14:21;101144.00;;;19.97;99.22
56042;BME280;48756;41.374;2.066;2022-10-16T07:16:47;101149.19;;;20.21;98.05
56042;BME280;48756;41.374;2.066;2022-10-16T07:19:13;101157.84;;;20.24;96.91
56042;BME280;48756;41.374;2.066;2022-10-16T07:21:40;101157.09;;;20.00;98.19
56042;BME280;48756;41.374;2.066;2022-10-16T07:24:06;101165.78;;;20.24;96.56
56042;BME280;48756;41.374;2.066;2022-10-16T07:26:33;101162.72;;;20.33;95.66
56042;BME280;48756;41.374;2.066;2022-10-16T07:28:58;101166.91;;;20.18;96.17
56042;BME280;48756;41.374;2.066;2022-10-16T07:31:24;101168.56;;;20.21;94.78
56042;BME280;48756;41.374;2.066;2022-10-16T07:33:49;101177.00;;;20.09;96.73
56042;BME280;48756;41.374;2.066;2022-10-16T07:36:15;101177.91;;;20.30;95.93
56042;BME280;48756;41.374;2.066;2022-10-16T07:38:40;101176.59;;;20.40;94.17
56042;BME280;48756;41.374;2.066;2022-10-16T07:41:07;101193.41;;;20.39;93.78
56042;BME280;48756;41.374;2.066;2022-10-16T07:43:36;101192.63;;;20.35;93.95
56042;BME280;48756;41.374;2.066;2022-10-16T07:46:01;101193.47;;;20.37;94.22
56042;BME280;48756;41.374;2.066;2022-10-16T07:48:27;101199.16;;;20.69;92.99
56042;BME280;48756;41.374;2.066;2022-10-16T07:50:56;101198.81;;;20.76;92.74
56042;BME280;48756;41.374;2.066;2022-10-16T07:53:22;101204.81;;;20.41;93.07
56042;BME280;48756;41.374;2.066;2022-10-16T07:55:47;101199.91;;;20.52;92.42
56042;BME280;48756;41.374;2.066;2022-10-16T07:58:12;101207.31;;;20.64;91.79
56042;BME280;48756;41.374;2.066;2022-10-16T08:00:38;101215.38;;;20.82;91.00
56042;BME280;48756;41.374;2.066;2022-10-16T08:03:04;101213.53;;;21.02;90.45
56042;BME280;48756;41.374;2.066;2022-10-16T08:05:30;101211.91;;;21.00;89.54
56042;BME280;48756;41.374;2.066;2022-10-16T08:07:56;101213.28;;;21.08;90.45
56042;BME280;48756;41.374;2.066;2022-10-16T08:10:22;101207.16;;;21.27;89.06
56042;BME280;48756;41.374;2.066;2022-10-16T08:12:48;101216.81;;;21.09;90.16
56042;BME280;48756;41.374;2.066;2022-10-16T08:15:13;101209.75;;;20.89;91.36
56042;BME280;48756;41.374;2.066;2022-10-16T08:17:38;101220.25;;;21.11;90.65
56042;BME280;48756;41.374;2.066;2022-10-16T08:20:04;101225.09;;;21.20;89.40
56042;BME280;48756;41.374;2.066;2022-10-16T08:22:30;101235.53;;;21.25;88.56
56042;BME280;48756;41.374;2.066;2022-10-16T08:24:55;101230.75;;;21.13;89.46
56042;BME280;48756;41.374;2.066;2022-10-16T08:27:20;101242.09;;;21.16;90.07
56042;BME280;48756;41.374;2.066;2022-10-16T08:29:46;101245.41;;;21.01;89.31
56042;BME280;48756;41.374;2.066;2022-10-16T08:32:11;101244.53;;;21.21;88.81
56042;BME280;48756;41.374;2.066;2022-10-16T08:34:36;101246.16;;;21.23;88.57
56042;BME280;48756;41.374;2.066;2022-10-16T08:37:02;101249.25;;;21.14;87.36
56042;BME280;48756;41.374;2.066;2022-10-16T08:39:28;101243.16;;;21.32;87.65
56042;BME280;48756;41.374;2.066;2022-10-16T08:46:53;101251.69;;;21.58;86.69
56042;BME280;48756;41.374;2.066;2022-10-16T08:49:20;101251.69;;;21.94;85.59
56042;BME280;48756;41.374;2.066;2022-10-16T08:51:45;101245.25;;;21.99;84.84
56042;BME280;48756;41.374;2.066;2022-10-16T08:57:41;101245.66;;;22.45;82.84
56042;BME280;48756;41.374;2.066;2022-10-16T08:59:47;101250.50;;;22.72;82.54
56042;BME280;48756;41.374;2.066;2022-10-16T09:04:47;101254.69;;;22.76;81.92
56042;BME280;48756;41.374;2.066;2022-10-16T09:07:21;101253.16;;;22.72;82.27
56042;BME280;48756;41.374;2.066;2022-10-16T09:23:26;101267.28;;;22.72;82.50
56042;BME280;48756;41.374;2.066;2022-10-16T09:25:52;101265.41;;;22.74;83.38
56042;BME280;48756;41.374;2.066;2022-10-16T09:28:18;101272.81;;;23.02;83.23
56042;BME280;48756;41.374;2.066;2022-10-16T09:30:44;101269.94;;;22.72;82.26
56042;BME280;48756;41.374;2.066;2022-10-16T09:33:10;101276.72;;;22.78;83.09
56042;BME280;48756;41.374;2.066;2022-10-16T09:35:37;101272.13;;;22.99;82.44
56042;BME280;48756;41.374;2.066;2022-10-16T09:38:04;101281.97;;;22.79;83.12
56042;BME280;48756;41.374;2.066;2022-10-16T09:40:30;101280.56;;;22.72;84.33
56042;BME280;48756;41.374;2.066;2022-10-16T09:42:57;101275.13;;;23.26;81.53
56042;BME280;48756;41.374;2.066;2022-10-16T09:45:26;101274.09;;;23.93;78.06
56042;BME280;48756;41.374;2.066;2022-10-16T09:47:51;101279.59;;;23.90;77.12
56042;BME280;48756;41.374;2.066;2022-10-16T09:50:27;101287.00;;;23.85;78.68
56042;BME280;48756;41.374;2.066;2022-10-16T09:53:06;101285.00;;;24.04;78.15
56042;BME280;48756;41.374;2.066;2022-10-16T09:55:33;101292.38;;;24.14;78.50
56042;BME280;48756;41.374;2.066;2022-10-16T09:57:59;101294.34;;;24.11;77.10
56042;BME280;48756;41.374;2.066;2022-10-16T10:00:24;101296.28;;;23.77;78.70
56042;BME280;48756;41.374;2.066;2022-10-16T10:02:50;101296.97;;;23.48;80.49
56042;BME280;48756;41.374;2.066;2022-10-16T10:05:25;101294.53;;;24.08;78.88
56042;BME280;48756;41.374;2.066;2022-10-16T10:07:58;101275.28;;;24.64;76.40
56042;BME280;48756;41.374;2.066;2022-10-16T10:10:25;101275.03;;;24.83;75.90
56042;BME280;48756;41.374;2.066;2022-10-16T10:12:52;101272.06;;;25.03;74.09
56042;BME280;48756;41.374;2.066;2022-10-16T10:15:17;101275.84;;;24.99;75.15
56042;BME280;48756;41.374;2.066;2022-10-16T10:17:50;101279.78;;;25.37;78.09
56042;BME280;48756;41.374;2.066;2022-10-16T10:20:29;101278.69;;;25.53;75.20
56042;BME280;48756;41.374;2.066;2022-10-16T10:22:56;101281.31;;;25.41;76.95
56042;BME280;48756;41.374;2.066;2022-10-16T10:35:22;101284.28;;;26.06;74.97
56042;BME280;48756;41.374;2.066;2022-10-16T10:38:10;101280.16;;;26.00;74.06
56042;BME280;48756;41.374;2.066;2022-10-16T10:46:02;101291.13;;;26.10;73.41
56042;BME280;48756;41.374;2.066;2022-10-16T10:51:09;101275.84;;;26.39;71.58
56042;BME280;48756;41.374;2.066;2022-10-16T10:53:38;101285.03;;;26.08;72.76
56042;BME280;48756;41.374;2.066;2022-10-16T11:03:50;101264.66;;;26.19;71.19
56042;BME280;48756;41.374;2.066;2022-10-16T11:09:09;101269.97;;;25.37;76.21
56042;BME280;48756;41.374;2.066;2022-10-16T11:11:41;101270.72;;;25.68;76.40
56042;BME280;48756;41.374;2.066;2022-10-16T11:27:33;101255.38;;;26.90;71.44
56042;BME280;48756;41.374;2.066;2022-10-16T11:30:01;101250.91;;;26.91;71.15
56042;BME280;48756;41.374;2.066;2022-10-16T11:32:32;101255.16;;;26.93;72.11
56042;BME280;48756;41.374;2.066;2022-10-16T11:35:05;101244.09;;;26.99;69.43
56042;BME280;48756;41.374;2.066;2022-10-16T11:37:37;101247.41;;;27.03;69.67
56042;BME280;48756;41.374;2.066;2022-10-16T11:43:04;101255.00;;;27.09;71.03
56042;BME280;48756;41.374;2.066;2022-10-16T11:45:39;101252.31;;;27.22;70.45
56042;BME280;48756;41.374;2.066;2022-10-16T11:50:50;101244.06;;;27.12;69.77
56042;BME280;48756;41.374;2.066;2022-10-16T11:56:01;101234.75;;;26.67;71.09
56042;BME280;48756;41.374;2.066;2022-10-16T11:58:38;101231.88;;;26.30;74.01
56042;BME280;48756;41.374;2.066;2022-10-16T12:03:33;101228.56;;;26.27;75.27
56042;BME280;48756;41.374;2.066;2022-10-16T12:08:39;101228.22;;;26.83;72.40
56042;BME280;48756;41.374;2.066;2022-10-16T12:11:09;101223.22;;;26.79;73.02
56042;BME280;48756;41.374;2.066;2022-10-16T12:13:39;101211.88;;;26.75;72.54
56042;BME280;48756;41.374;2.066;2022-10-16T12:16:05;101221.28;;;26.55;74.12
56042;BME280;48756;41.374;2.066;2022-10-16T12:18:31;101230.25;;;26.67;73.33
56042;BME280;48756;41.374;2.066;2022-10-16T12:20:57;101228.22;;;26.83;74.37
56042;BME280;48756;41.374;2.066;2022-10-16T12:23:24;101225.25;;;27.13;72.10
56042;BME280;48756;41.374;2.066;2022-10-16T12:25:54;101230.91;;;27.09;70.73
56042;BME280;48756;41.374;2.066;2022-10-16T12:28:20;101225.97;;;27.15;71.87
56042;BME280;48756;41.374;2.066;2022-10-16T12:30:56;101226.75;;;27.05;70.42
56042;BME280;48756;41.374;2.066;2022-10-16T12:35:47;101217.22;;;27.26;70.29
56042;BME280;48756;41.374;2.066;2022-10-16T12:41:01;101221.53;;;27.65;68.43
56042;BME280;48756;41.374;2.066;2022-10-16T12:43:48;101224.22;;;27.53;68.07
56042;BME280;48756;41.374;2.066;2022-10-16T12:48:39;101230.41;;;27.66;68.56
56042;BME280;48756;41.374;2.066;2022-10-16T12:51:25;101231.72;;;27.48;68.81
56042;BME280;48756;41.374;2.066;2022-10-16T13:14:39;101228.59;;;27.54;68.29
56042;BME280;48756;41.374;2.066;2022-10-16T13:17:16;101236.34;;;27.45;67.44
56042;BME280;48756;41.374;2.066;2022-10-16T13:22:32;101229.44;;;27.67;65.98
56042;BME280;48756;41.374;2.066;2022-10-16T13:27:39;101230.06;;;27.58;67.06
56042;BME280;48756;41.374;2.066;2022-10-16T13:30:17;101236.34;;;27.82;66.15
56042;BME280;48756;41.374;2.066;2022-10-16T13:32:44;101227.75;;;27.53;66.10
56042;BME280;48756;41.374;2.066;2022-10-16T13:35:26;101225.69;;;27.20;63.32
56042;BME280;48756;41.374;2.066;2022-10-16T13:38:03;101216.03;;;26.79;66.72
56042;BME280;48756;41.374;2.066;2022-10-16T13:40:28;101222.66;;;27.25;65.31
56042;BME280;48756;41.374;2.066;2022-10-16T13:42:53;101222.09;;;27.45;64.27
56042;BME280;48756;41.374;2.066;2022-10-16T13:45:20;101228.66;;;27.28;66.76
56042;BME280;48756;41.374;2.066;2022-10-16T13:47:45;101221.81;;;26.99;68.89
56042;BME280;48756;41.374;2.066;2022-10-16T13:50:12;101214.47;;;27.02;69.44
56042;BME280;48756;41.374;2.066;2022-10-16T13:52:38;101215.16;;;27.42;68.53
56042;BME280;48756;41.374;2.066;2022-10-16T13:55:10;101211.84;;;27.26;68.75
56042;BME280;48756;41.374;2.066;2022-10-16T13:57:36;101221.03;;;27.35;68.45
56042;BME280;48756;41.374;2.066;2022-10-16T14:00:02;101218.25;;;27.36;65.94
56042;BME280;48756;41.374;2.066;2022-10-16T14:02:33;101217.09;;;27.28;64.93
56042;BME280;48756;41.374;2.066;2022-10-16T14:05:00;101207.72;;;26.71;68.22
56042;BME280;48756;41.374;2.066;2022-10-16T14:07:28;101209.84;;;26.79;65.74
56042;BME280;48756;41.374;2.066;2022-10-16T14:09:54;101215.72;;;26.97;63.38
56042;BME280;48756;41.374;2.066;2022-10-16T14:12:20;101214.13;;;27.20;63.32
56042;BME280;48756;41.374;2.066;2022-10-16T14:14:47;101198.91;;;26.44;62.90
56042;BME280;48756;41.374;2.066;2022-10-16T14:17:14;101209.53;;;26.71;62.56
56042;BME280;48756;41.374;2.066;2022-10-16T14:19:39;101211.97;;;26.61;62.92
56042;BME280;48756;41.374;2.066;2022-10-16T14:22:11;101208.63;;;26.70;59.22
56042;BME280;48756;41.374;2.066;2022-10-16T14:24:44;101208.84;;;26.67;62.93
56042;BME280;48756;41.374;2.066;2022-10-16T14:27:28;101211.75;;;26.90;61.90
56042;BME280;48756;41.374;2.066;2022-10-16T14:32:39;101212.81;;;26.87;63.09
56042;BME280;48756;41.374;2.066;2022-10-16T14:35:11;101211.47;;;27.07;61.89
56042;BME280;48756;41.374;2.066;2022-10-16T14:37:50;101202.22;;;26.85;63.00
56042;BME280;48756;41.374;2.066;2022-10-16T14:40:16;101202.75;;;26.91;62.33
56042;BME280;48756;41.374;2.066;2022-10-16T14:42:42;101197.75;;;26.73;60.12
56042;BME280;48756;41.374;2.066;2022-10-16T14:45:08;101214.00;;;26.83;61.46
56042;BME280;48756;41.374;2.066;2022-10-16T14:47:35;101205.88;;;26.97;61.42
56042;BME280;48756;41.374;2.066;2022-10-16T14:50:02;101214.53;;;26.88;60.00
56042;BME280;48756;41.374;2.066;2022-10-16T14:52:27;101213.78;;;26.99;56.70
56042;BME280;48756;41.374;2.066;2022-10-16T14:54:53;101208.13;;;26.78;58.09
56042;BME280;48756;41.374;2.066;2022-10-16T14:57:22;101204.28;;;26.95;57.43